Strona główna
METAR-TAF:

METAR-TAF

Lotnisko :

Morlaix, Francja

Szerokość geograficzna: 48-36N, Długość geograficzna: 3-49W, wysokość: 84 m

Aktualna obserwacja pogody

Raport powstał 24 minut temu, godzina 18:30 UTC
Wiatr 8 kt od zachodnio-północny zachód, zmienny między zachód i północny zachód
Temperatura 19°C
Wilgotność 73%
Ciśnienie 1015 hPa
Widzialność 10 km lub więcej
Brak chmur poniżej 1500 m i brak chmur cumulonimbus

METAR: LFRU 171830Z AUTO 29008KT 260V320 CAVOK 19/14 Q1015

czas: 20:54 (18:54 UTC)


TAF: brakujący

Obserwacja i prognoza pogody dla ponad 4000 lotnisk (raport METAR i TAF).

Dostępne stacje oznaczono żółtymi i czerwonymi punktami na mapie.

Najedź kursorem aby zobaczyć nazwę stacji.

Kliknij aby zobaczyć obserwacje i prognozy pogody.

Aby zmienić mapę: kliknij na zielony przycisk z czarnym krzyżykiem, aby powiększyć; na zielony przycisk z myślnikiem, aby pomniejszyć; na zielone strzałki, aby przejść do map sąsiednich.


METAR-TAF: